sensor_id;sensor_type;location;lat;lon;timestamp;pressure;altitude;pressure_sealevel;temperature;humidity
66681;BME280;53575;51.366;12.350;2022-10-22T00:00:08;99825.81;;;12.65;100.00
66681;BME280;53575;51.366;12.350;2022-10-22T00:02:33;99825.72;;;12.69;100.00
66681;BME280;53575;51.366;12.350;2022-10-22T00:04:59;99814.38;;;12.69;100.00
66681;BME280;53575;51.366;12.350;2022-10-22T00:07:24;99827.53;;;12.66;100.00
66681;BME280;53575;51.366;12.350;2022-10-22T00:09:50;99830.13;;;12.67;100.00
66681;BME280;53575;51.366;12.350;2022-10-22T00:12:15;99832.78;;;12.66;100.00
66681;BME280;53575;51.366;12.350;2022-10-22T00:14:41;99819.72;;;12.64;100.00
66681;BME280;53575;51.366;12.350;2022-10-22T00:17:07;99817.28;;;12.55;100.00
66681;BME280;53575;51.366;12.350;2022-10-22T00:19:32;99816.25;;;12.62;100.00
66681;BME280;53575;51.366;12.350;2022-10-22T00:21:58;99821.38;;;12.68;100.00
66681;BME280;53575;51.366;12.350;2022-10-22T00:24:24;99832.16;;;12.55;100.00
66681;BME280;53575;51.366;12.350;2022-10-22T00:26:50;99837.31;;;12.59;100.00
66681;BME280;53575;51.366;12.350;2022-10-22T00:29:15;99822.41;;;12.61;100.00
66681;BME280;53575;51.366;12.350;2022-10-22T00:31:44;99824.09;;;12.64;100.00
66681;BME280;53575;51.366;12.350;2022-10-22T00:34:15;99825.69;;;12.71;100.00
66681;BME280;53575;51.366;12.350;2022-10-22T00:36:41;99826.31;;;12.81;100.00
66681;BME280;53575;51.366;12.350;2022-10-22T00:39:06;99835.81;;;12.86;100.00
66681;BME280;53575;51.366;12.350;2022-10-22T00:41:32;99845.28;;;12.92;100.00
66681;BME280;53575;51.366;12.350;2022-10-22T00:44:00;99861.69;;;13.02;100.00
66681;BME280;53575;51.366;12.350;2022-10-22T00:46:25;99857.56;;;12.91;100.00
66681;BME280;53575;51.366;12.350;2022-10-22T00:48:51;99858.47;;;12.89;100.00
66681;BME280;53575;51.366;12.350;2022-10-22T00:51:20;99844.97;;;13.06;100.00
66681;BME280;53575;51.366;12.350;2022-10-22T00:53:49;99832.00;;;13.01;100.00
66681;BME280;53575;51.366;12.350;2022-10-22T00:56:15;99841.69;;;12.96;100.00
66681;BME280;53575;51.366;12.350;2022-10-22T00:58:45;99844.38;;;12.95;100.00
66681;BME280;53575;51.366;12.350;2022-10-22T01:01:16;99846.19;;;12.91;100.00
66681;BME280;53575;51.366;12.350;2022-10-22T01:03:44;99851.44;;;12.91;100.00
66681;BME280;53575;51.366;12.350;2022-10-22T01:06:21;99848.84;;;12.89;100.00
66681;BME280;53575;51.366;12.350;2022-10-22T01:12:45;99839.88;;;13.00;100.00
66681;BME280;53575;51.366;12.350;2022-10-22T01:15:29;99833.41;;;13.14;100.00
66681;BME280;53575;51.366;12.350;2022-10-22T01:18:03;99836.88;;;13.16;100.00
66681;BME280;53575;51.366;12.350;2022-10-22T01:21:07;99835.97;;;13.17;100.00
66681;BME280;53575;51.366;12.350;2022-10-22T01:23:51;99836.53;;;13.32;100.00
66681;BME280;53575;51.366;12.350;2022-10-22T01:26:24;99835.75;;;13.27;100.00
66681;BME280;53575;51.366;12.350;2022-10-22T01:28:58;99827.09;;;13.22;100.00
66681;BME280;53575;51.366;12.350;2022-10-22T01:31:29;99829.72;;;13.23;100.00
66681;BME280;53575;51.366;12.350;2022-10-22T01:33:57;99824.47;;;13.22;100.00
66681;BME280;53575;51.366;12.350;2022-10-22T01:36:24;99820.00;;;13.27;100.00
66681;BME280;53575;51.366;12.350;2022-10-22T01:38:50;99825.31;;;13.25;100.00
66681;BME280;53575;51.366;12.350;2022-10-22T01:41:16;99829.69;;;13.25;100.00
66681;BME280;53575;51.366;12.350;2022-10-22T01:43:42;99824.59;;;13.17;100.00
66681;BME280;53575;51.366;12.350;2022-10-22T01:46:09;99837.63;;;13.20;100.00
66681;BME280;53575;51.366;12.350;2022-10-22T01:49:06;99840.38;;;13.15;100.00
66681;BME280;53575;51.366;12.350;2022-10-22T01:51:46;99839.50;;;13.16;100.00
66681;BME280;53575;51.366;12.350;2022-10-22T01:54:45;99837.91;;;13.09;100.00
66681;BME280;53575;51.366;12.350;2022-10-22T02:05:01;99820.34;;;13.11;100.00
66681;BME280;53575;51.366;12.350;2022-10-22T02:07:32;99818.56;;;13.13;100.00
66681;BME280;53575;51.366;12.350;2022-10-22T02:09:59;99813.56;;;13.03;100.00
66681;BME280;53575;51.366;12.350;2022-10-22T02:12:26;99822.34;;;13.02;100.00
66681;BME280;53575;51.366;12.350;2022-10-22T02:14:54;99831.16;;;12.99;100.00
66681;BME280;53575;51.366;12.350;2022-10-22T02:17:21;99826.81;;;12.98;100.00
66681;BME280;53575;51.366;12.350;2022-10-22T02:19:55;99815.28;;;13.05;100.00
66681;BME280;53575;51.366;12.350;2022-10-22T02:22:22;99812.84;;;12.98;100.00
66681;BME280;53575;51.366;12.350;2022-10-22T02:24:48;99810.28;;;12.93;100.00
66681;BME280;53575;51.366;12.350;2022-10-22T02:30:08;99806.97;;;12.86;100.00
66681;BME280;53575;51.366;12.350;2022-10-22T02:33:03;99801.00;;;12.80;100.00
66681;BME280;53575;51.366;12.350;2022-10-22T02:35:28;99798.38;;;12.80;100.00
66681;BME280;53575;51.366;12.350;2022-10-22T02:37:55;99796.75;;;12.74;100.00
66681;BME280;53575;51.366;12.350;2022-10-22T02:40:22;99796.91;;;12.68;100.00
66681;BME280;53575;51.366;12.350;2022-10-22T02:42:49;99798.69;;;12.67;100.00
66681;BME280;53575;51.366;12.350;2022-10-22T02:45:16;99798.69;;;12.67;100.00
66681;BME280;53575;51.366;12.350;2022-10-22T02:47:42;99794.34;;;12.65;100.00
66681;BME280;53575;51.366;12.350;2022-10-22T02:50:08;99798.75;;;12.64;100.00
66681;BME280;53575;51.366;12.350;2022-10-22T02:52:33;99805.75;;;12.62;100.00
66681;BME280;53575;51.366;12.350;2022-10-22T02:54:58;99807.53;;;12.62;100.00
66681;BME280;53575;51.366;12.350;2022-10-22T02:57:24;99799.72;;;12.59;100.00
66681;BME280;53575;51.366;12.350;2022-10-22T02:59:49;99802.19;;;12.66;100.00
66681;BME280;53575;51.366;12.350;2022-10-22T03:02:14;99810.94;;;12.65;100.00
66681;BME280;53575;51.366;12.350;2022-10-22T03:04:40;99812.66;;;12.66;100.00
66681;BME280;53575;51.366;12.350;2022-10-22T03:07:06;99824.97;;;12.64;100.00
66681;BME280;53575;51.366;12.350;2022-10-22T03:09:31;99820.50;;;12.68;100.00
66681;BME280;53575;51.366;12.350;2022-10-22T03:11:56;99818.69;;;12.72;100.00
66681;BME280;53575;51.366;12.350;2022-10-22T03:14:22;99820.28;;;12.77;100.00
66681;BME280;53575;51.366;12.350;2022-10-22T03:16:47;99824.38;;;12.90;100.00
66681;BME280;53575;51.366;12.350;2022-10-22T03:19:13;99833.03;;;12.94;100.00
66681;BME280;53575;51.366;12.350;2022-10-22T03:21:46;99824.25;;;12.95;100.00
66681;BME280;53575;51.366;12.350;2022-10-22T03:24:20;99822.66;;;12.88;100.00
66681;BME280;53575;51.366;12.350;2022-10-22T03:26:48;99827.19;;;12.81;100.00
66681;BME280;53575;51.366;12.350;2022-10-22T03:29:15;99834.19;;;12.81;100.00
66681;BME280;53575;51.366;12.350;2022-10-22T03:31:40;99848.09;;;12.84;100.00
66681;BME280;53575;51.366;12.350;2022-10-22T03:34:06;99847.13;;;12.88;100.00
66681;BME280;53575;51.366;12.350;2022-10-22T03:36:32;99844.38;;;12.95;100.00
66681;BME280;53575;51.366;12.350;2022-10-22T03:38:58;99834.69;;;12.97;100.00
66681;BME280;53575;51.366;12.350;2022-10-22T03:41:25;99839.25;;;12.90;100.00
66681;BME280;53575;51.366;12.350;2022-10-22T03:43:50;99840.22;;;12.86;100.00
66681;BME280;53575;51.366;12.350;2022-10-22T03:46:18;99841.25;;;12.79;100.00
66681;BME280;53575;51.366;12.350;2022-10-22T03:48:43;99840.41;;;12.77;100.00
66681;BME280;53575;51.366;12.350;2022-10-22T03:51:08;99843.06;;;12.75;100.00
66681;BME280;53575;51.366;12.350;2022-10-22T03:53:34;99847.47;;;12.75;100.00
66681;BME280;53575;51.366;12.350;2022-10-22T03:56:00;99848.25;;;12.78;100.00
66681;BME280;53575;51.366;12.350;2022-10-22T03:58:25;99855.22;;;12.78;100.00
66681;BME280;53575;51.366;12.350;2022-10-22T04:00:51;99859.72;;;12.73;100.00
66681;BME280;53575;51.366;12.350;2022-10-22T04:03:16;99851.19;;;12.63;100.00
66681;BME280;53575;51.366;12.350;2022-10-22T04:05:41;99848.66;;;12.60;100.00
66681;BME280;53575;51.366;12.350;2022-10-22T04:08:07;99851.34;;;12.55;100.00
66681;BME280;53575;51.366;12.350;2022-10-22T04:10:32;99849.81;;;12.47;100.00
66681;BME280;53575;51.366;12.350;2022-10-22T04:12:57;99848.94;;;12.46;100.00
66681;BME280;53575;51.366;12.350;2022-10-22T04:15:23;99845.41;;;12.49;100.00
66681;BME280;53575;51.366;12.350;2022-10-22T04:17:52;99858.56;;;12.46;100.00
66681;BME280;53575;51.366;12.350;2022-10-22T04:20:17;99856.06;;;12.39;100.00
66681;BME280;53575;51.366;12.350;2022-10-22T04:22:42;99862.09;;;12.43;100.00
66681;BME280;53575;51.366;12.350;2022-10-22T04:25:08;99869.09;;;12.44;100.00
66681;BME280;53575;51.366;12.350;2022-10-22T04:27:34;99856.41;;;12.64;100.00
66681;BME280;53575;51.366;12.350;2022-10-22T04:29:59;99865.81;;;12.73;100.00
66681;BME280;53575;51.366;12.350;2022-10-22T04:32:28;99867.69;;;12.68;100.00
66681;BME280;53575;51.366;12.350;2022-10-22T04:34:53;99864.28;;;12.63;100.00
66681;BME280;53575;51.366;12.350;2022-10-22T04:37:19;99868.69;;;12.62;100.00
66681;BME280;53575;51.366;12.350;2022-10-22T04:39:44;99868.50;;;12.72;100.00
66681;BME280;53575;51.366;12.350;2022-10-22T04:42:10;99873.81;;;12.68;100.00
66681;BME280;53575;51.366;12.350;2022-10-22T04:44:35;99879.09;;;12.65;100.00
66681;BME280;53575;51.366;12.350;2022-10-22T04:47:00;99872.19;;;12.61;100.00
66681;BME280;53575;51.366;12.350;2022-10-22T04:49:26;99872.16;;;12.64;100.00
66681;BME280;53575;51.366;12.350;2022-10-22T04:51:51;99865.13;;;12.65;100.00
66681;BME280;53575;51.366;12.350;2022-10-22T04:54:17;99851.28;;;12.60;100.00
66681;BME280;53575;51.366;12.350;2022-10-22T04:56:42;99854.53;;;12.69;100.00
66681;BME280;53575;51.366;12.350;2022-10-22T04:59:09;99860.63;;;12.72;100.00
66681;BME280;53575;51.366;12.350;2022-10-22T05:01:38;99864.06;;;12.74;100.00
66681;BME280;53575;51.366;12.350;2022-10-22T05:04:05;99848.44;;;12.71;100.00
66681;BME280;53575;51.366;12.350;2022-10-22T05:06:33;99850.25;;;12.67;100.00
66681;BME280;53575;51.366;12.350;2022-10-22T05:09:01;99858.94;;;12.69;100.00
66681;BME280;53575;51.366;12.350;2022-10-22T05:11:29;99854.59;;;12.66;100.00
66681;BME280;53575;51.366;12.350;2022-10-22T05:13:55;99855.41;;;12.70;100.00
66681;BME280;53575;51.366;12.350;2022-10-22T05:16:21;99862.34;;;12.73;100.00
66681;BME280;53575;51.366;12.350;2022-10-22T05:18:47;99866.78;;;12.69;100.00
66681;BME280;53575;51.366;12.350;2022-10-22T05:21:15;99866.69;;;12.74;100.00
66681;BME280;53575;51.366;12.350;2022-10-22T05:23:42;99861.16;;;12.87;100.00
66681;BME280;53575;51.366;12.350;2022-10-22T05:26:10;99866.56;;;12.80;100.00
66681;BME280;53575;51.366;12.350;2022-10-22T05:28:35;99870.91;;;12.81;100.00
66681;BME280;53575;51.366;12.350;2022-10-22T05:31:02;99872.66;;;12.80;100.00
66681;BME280;53575;51.366;12.350;2022-10-22T05:33:29;99876.09;;;12.84;100.00
66681;BME280;53575;51.366;12.350;2022-10-22T05:35:55;99878.59;;;12.88;100.00
66681;BME280;53575;51.366;12.350;2022-10-22T05:38:21;99882.59;;;13.05;100.00
66681;BME280;53575;51.366;12.350;2022-10-22T05:40:46;99891.34;;;13.04;100.00
66681;BME280;53575;51.366;12.350;2022-10-22T05:43:12;99894.19;;;12.95;100.00
66681;BME280;53575;51.366;12.350;2022-10-22T05:45:41;99901.28;;;12.91;100.00
66681;BME280;53575;51.366;12.350;2022-10-22T05:48:07;99901.22;;;12.94;100.00
66681;BME280;53575;51.366;12.350;2022-10-22T05:50:37;99896.59;;;13.04;100.00
66681;BME280;53575;51.366;12.350;2022-10-22T05:53:04;99906.38;;;12.97;100.00
66681;BME280;53575;51.366;12.350;2022-10-22T05:55:33;99903.06;;;12.89;100.00
66681;BME280;53575;51.366;12.350;2022-10-22T05:58:02;99901.41;;;12.85;100.00
66681;BME280;53575;51.366;12.350;2022-10-22T06:00:27;99903.91;;;12.91;100.00
66681;BME280;53575;51.366;12.350;2022-10-22T06:02:52;99907.38;;;12.91;100.00
66681;BME280;53575;51.366;12.350;2022-10-22T06:05:18;99909.53;;;13.11;100.00
66681;BME280;53575;51.366;12.350;2022-10-22T06:07:43;99915.66;;;13.12;100.00
66681;BME280;53575;51.366;12.350;2022-10-22T06:10:19;99926.31;;;13.06;100.00
66681;BME280;53575;51.366;12.350;2022-10-22T06:12:45;99933.84;;;13.20;100.00
66681;BME280;53575;51.366;12.350;2022-10-22T06:15:12;99939.09;;;13.20;100.00
66681;BME280;53575;51.366;12.350;2022-10-22T06:17:38;99940.78;;;13.24;100.00
66681;BME280;53575;51.366;12.350;2022-10-22T06:20:04;99932.72;;;13.31;100.00
66681;BME280;53575;51.366;12.350;2022-10-22T06:22:30;99937.19;;;13.28;100.00
66681;BME280;53575;51.366;12.350;2022-10-22T06:24:55;99950.28;;;13.29;100.00
66681;BME280;53575;51.366;12.350;2022-10-22T06:27:20;99951.19;;;13.28;100.00
66681;BME280;53575;51.366;12.350;2022-10-22T06:29:47;99950.56;;;13.54;100.00
66681;BME280;53575;51.366;12.350;2022-10-22T06:32:12;99955.00;;;13.52;100.00
66681;BME280;53575;51.366;12.350;2022-10-22T06:34:38;99960.44;;;13.43;100.00
66681;BME280;53575;51.366;12.350;2022-10-22T06:37:03;99957.25;;;13.30;100.00
66681;BME280;53575;51.366;12.350;2022-10-22T06:39:29;99955.53;;;13.29;100.00
66681;BME280;53575;51.366;12.350;2022-10-22T06:41:54;99964.94;;;13.38;100.00
66681;BME280;53575;51.366;12.350;2022-10-22T06:44:19;99966.28;;;13.56;100.00
66681;BME280;53575;51.366;12.350;2022-10-22T06:46:48;99964.44;;;13.59;100.00
66681;BME280;53575;51.366;12.350;2022-10-22T06:49:14;99977.31;;;13.70;100.00
66681;BME280;53575;51.366;12.350;2022-10-22T06:51:40;99974.59;;;13.75;100.00
66681;BME280;53575;51.366;12.350;2022-10-22T06:54:05;99981.44;;;13.80;100.00
66681;BME280;53575;51.366;12.350;2022-10-22T06:56:31;99982.59;;;13.69;100.00
66681;BME280;53575;51.366;12.350;2022-10-22T06:58:57;99990.28;;;13.78;100.00
66681;BME280;53575;51.366;12.350;2022-10-22T07:01:25;99979.66;;;13.82;100.00
66681;BME280;53575;51.366;12.350;2022-10-22T07:03:51;99981.72;;;14.04;100.00
66681;BME280;53575;51.366;12.350;2022-10-22T07:06:18;99983.25;;;14.12;100.00
66681;BME280;53575;51.366;12.350;2022-10-22T07:08:43;99998.25;;;14.07;100.00
66681;BME280;53575;51.366;12.350;2022-10-22T07:11:20;100003.13;;;14.23;100.00
66681;BME280;53575;51.366;12.350;2022-10-22T07:13:47;99999.44;;;14.30;100.00
66681;BME280;53575;51.366;12.350;2022-10-22T07:16:12;100002.25;;;14.56;100.00
66681;BME280;53575;51.366;12.350;2022-10-22T07:18:39;100008.94;;;14.68;100.00
66681;BME280;53575;51.366;12.350;2022-10-22T07:21:06;100013.06;;;14.78;100.00
66681;BME280;53575;51.366;12.350;2022-10-22T07:23:32;100020.81;;;14.83;100.00
66681;BME280;53575;51.366;12.350;2022-10-22T07:25:58;100025.25;;;14.81;100.00
66681;BME280;53575;51.366;12.350;2022-10-22T07:28:23;100029.41;;;14.88;100.00
66681;BME280;53575;51.366;12.350;2022-10-22T07:30:49;100034.44;;;14.97;100.00
66681;BME280;53575;51.366;12.350;2022-10-22T07:33:15;100032.59;;;14.99;100.00
66681;BME280;53575;51.366;12.350;2022-10-22T07:35:41;100029.19;;;14.97;100.00
66681;BME280;53575;51.366;12.350;2022-10-22T07:38:07;100035.13;;;15.04;100.00
66681;BME280;53575;51.366;12.350;2022-10-22T07:40:34;100037.53;;;15.11;100.00
66681;BME280;53575;51.366;12.350;2022-10-22T07:42:59;100044.69;;;15.06;100.00
66681;BME280;53575;51.366;12.350;2022-10-22T07:45:25;100043.69;;;15.10;100.00
66681;BME280;53575;51.366;12.350;2022-10-22T07:47:50;100043.91;;;15.03;100.00
66681;BME280;53575;51.366;12.350;2022-10-22T07:50:16;100056.28;;;14.99;100.00
66681;BME280;53575;51.366;12.350;2022-10-22T07:52:41;100052.00;;;14.97;100.00
66681;BME280;53575;51.366;12.350;2022-10-22T07:55:07;100051.88;;;15.01;100.00
66681;BME280;53575;51.366;12.350;2022-10-22T07:57:33;100055.44;;;14.99;100.00
66681;BME280;53575;51.366;12.350;2022-10-22T07:59:59;100059.91;;;14.95;100.00
66681;BME280;53575;51.366;12.350;2022-10-22T08:02:25;100054.56;;;14.98;100.00
66681;BME280;53575;51.366;12.350;2022-10-22T08:04:50;100059.84;;;14.98;100.00
66681;BME280;53575;51.366;12.350;2022-10-22T08:07:16;100058.81;;;15.04;100.00
66681;BME280;53575;51.366;12.350;2022-10-22T08:09:42;100056.41;;;14.96;100.00
66681;BME280;53575;51.366;12.350;2022-10-22T08:12:07;100053.00;;;14.93;100.00
66681;BME280;53575;51.366;12.350;2022-10-22T08:14:32;100066.22;;;14.90;100.00
66681;BME280;53575;51.366;12.350;2022-10-22T08:16:58;100064.53;;;14.87;100.00
66681;BME280;53575;51.366;12.350;2022-10-22T08:19:23;100066.25;;;14.88;100.00
66681;BME280;53575;51.366;12.350;2022-10-22T08:21:49;100061.81;;;14.90;100.00
66681;BME280;53575;51.366;12.350;2022-10-22T08:24:14;100054.94;;;14.86;100.00
66681;BME280;53575;51.366;12.350;2022-10-22T08:26:40;100065.44;;;14.86;100.00
66681;BME280;53575;51.366;12.350;2022-10-22T08:29:06;100061.41;;;14.73;100.00
66681;BME280;53575;51.366;12.350;2022-10-22T08:31:32;100066.44;;;14.82;100.00
66681;BME280;53575;51.366;12.350;2022-10-22T08:33:57;100072.47;;;14.85;100.00
66681;BME280;53575;51.366;12.350;2022-10-22T08:36:23;100074.28;;;14.83;100.00
66681;BME280;53575;51.366;12.350;2022-10-22T08:38:48;100071.63;;;14.85;100.00
66681;BME280;53575;51.366;12.350;2022-10-22T08:41:19;100082.94;;;14.89;100.00
66681;BME280;53575;51.366;12.350;2022-10-22T08:47:11;100087.41;;;14.85;100.00
66681;BME280;53575;51.366;12.350;2022-10-22T08:49:41;100084.78;;;14.85;100.00
66681;BME280;53575;51.366;12.350;2022-10-22T08:52:12;100090.84;;;14.87;100.00
66681;BME280;53575;51.366;12.350;2022-10-22T08:54:57;100095.91;;;14.95;100.00
66681;BME280;53575;51.366;12.350;2022-10-22T09:06:23;100102.91;;;15.27;100.00
66681;BME280;53575;51.366;12.350;2022-10-22T09:08:49;100108.94;;;15.30;100.00
66681;BME280;53575;51.366;12.350;2022-10-22T09:11:23;100103.41;;;15.40;100.00
66681;BME280;53575;51.366;12.350;2022-10-22T09:13:51;100109.28;;;15.49;100.00
66681;BME280;53575;51.366;12.350;2022-10-22T09:16:25;100112.41;;;15.62;100.00
66681;BME280;53575;51.366;12.350;2022-10-22T09:24:37;100110.13;;;15.79;99.64
66681;BME280;53575;51.366;12.350;2022-10-22T09:27:11;100117.75;;;15.89;99.68
66681;BME280;53575;51.366;12.350;2022-10-22T09:29:37;100119.25;;;15.97;97.90
66681;BME280;53575;51.366;12.350;2022-10-22T09:32:03;100118.97;;;16.06;98.04
66681;BME280;53575;51.366;12.350;2022-10-22T09:34:28;100108.19;;;16.14;97.13
66681;BME280;53575;51.366;12.350;2022-10-22T09:37:06;100111.47;;;16.21;97.01
66681;BME280;53575;51.366;12.350;2022-10-22T09:39:40;100115.94;;;16.19;95.77
66681;BME280;53575;51.366;12.350;2022-10-22T09:42:09;100114.06;;;15.94;97.04
66681;BME280;53575;51.366;12.350;2022-10-22T09:44:36;100114.34;;;15.85;97.83
66681;BME280;53575;51.366;12.350;2022-10-22T09:47:06;100114.28;;;15.88;98.38
66681;BME280;53575;51.366;12.350;2022-10-22T09:50:09;100126.69;;;15.83;98.42
66681;BME280;53575;51.366;12.350;2022-10-22T09:52:41;100117.63;;;15.93;97.37
66681;BME280;53575;51.366;12.350;2022-10-22T09:55:16;100126.69;;;15.84;97.97
66681;BME280;53575;51.366;12.350;2022-10-22T09:57:41;100123.84;;;15.91;97.91
66681;BME280;53575;51.366;12.350;2022-10-22T10:00:09;100119.69;;;16.10;98.04
66681;BME280;53575;51.366;12.350;2022-10-22T10:02:38;100131.22;;;16.07;96.80
66681;BME280;53575;51.366;12.350;2022-10-22T10:05:06;100120.44;;;16.15;96.06
66681;BME280;53575;51.366;12.350;2022-10-22T10:07:33;100127.44;;;16.16;94.96
66681;BME280;53575;51.366;12.350;2022-10-22T10:09:59;100135.34;;;16.16;94.70
66681;BME280;53575;51.366;12.350;2022-10-22T10:12:46;100134.13;;;16.26;95.19
66681;BME280;53575;51.366;12.350;2022-10-22T10:15:27;100126.75;;;16.38;94.25
66681;BME280;53575;51.366;12.350;2022-10-22T10:18:15;100122.47;;;16.33;93.74
66681;BME280;53575;51.366;12.350;2022-10-22T10:26:26;100119.22;;;16.52;90.65
66681;BME280;53575;51.366;12.350;2022-10-22T10:34:14;100117.41;;;16.80;89.03
66681;BME280;53575;51.366;12.350;2022-10-22T10:36:57;100128.66;;;16.86;87.00
66681;BME280;53575;51.366;12.350;2022-10-22T10:50:23;100121.28;;;17.44;84.96
66681;BME280;53575;51.366;12.350;2022-10-22T10:53:13;100111.22;;;17.53;83.94
66681;BME280;53575;51.366;12.350;2022-10-22T10:56:12;100126.31;;;17.73;83.02
66681;BME280;53575;51.366;12.350;2022-10-22T10:58:50;100132.19;;;17.82;80.82
66681;BME280;53575;51.366;12.350;2022-10-22T11:04:28;100144.31;;;17.87;77.53
66681;BME280;53575;51.366;12.350;2022-10-22T11:07:02;100135.81;;;17.79;77.84
66681;BME280;53575;51.366;12.350;2022-10-22T11:09:45;100146.59;;;17.96;77.77
66681;BME280;53575;51.366;12.350;2022-10-22T11:12:20;100143.91;;;17.98;76.96
66681;BME280;53575;51.366;12.350;2022-10-22T11:15:00;100145.50;;;18.02;75.76
66681;BME280;53575;51.366;12.350;2022-10-22T11:17:41;100149.63;;;18.09;76.03
66681;BME280;53575;51.366;12.350;2022-10-22T11:20:18;100143.09;;;18.18;75.24
66681;BME280;53575;51.366;12.350;2022-10-22T11:22:49;100145.56;;;18.22;74.56
66681;BME280;53575;51.366;12.350;2022-10-22T11:25:32;100138.34;;;18.26;73.23
66681;BME280;53575;51.366;12.350;2022-10-22T11:28:07;100155.28;;;18.22;72.76
66681;BME280;53575;51.366;12.350;2022-10-22T11:30:35;100148.88;;;18.27;72.95
66681;BME280;53575;51.366;12.350;2022-10-22T11:33:10;100152.75;;;18.19;73.16
66681;BME280;53575;51.366;12.350;2022-10-22T11:35:40;100141.94;;;18.25;72.49
66681;BME280;53575;51.366;12.350;2022-10-22T11:38:11;100159.53;;;18.26;71.72
66681;BME280;53575;51.366;12.350;2022-10-22T11:40:58;100150.22;;;18.16;71.48
66681;BME280;53575;51.366;12.350;2022-10-22T11:43:28;100159.75;;;18.20;72.32
66681;BME280;53575;51.366;12.350;2022-10-22T11:49:16;100160.44;;;18.25;72.07
66681;BME280;53575;51.366;12.350;2022-10-22T11:51:43;100148.00;;;18.27;72.68
66681;BME280;53575;51.366;12.350;2022-10-22T12:02:40;100164.25;;;18.40;71.29
66681;BME280;53575;51.366;12.350;2022-10-22T12:05:34;100167.06;;;18.35;71.83
66681;BME280;53575;51.366;12.350;2022-10-22T12:08:19;100159.41;;;18.51;72.14
66681;BME280;53575;51.366;12.350;2022-10-22T12:11:11;100161.41;;;18.44;71.46
66681;BME280;53575;51.366;12.350;2022-10-22T12:19:13;100149.22;;;18.62;71.99
66681;BME280;53575;51.366;12.350;2022-10-22T12:21:41;100154.38;;;18.65;72.50
66681;BME280;53575;51.366;12.350;2022-10-22T12:24:13;100169.34;;;18.44;73.28
66681;BME280;53575;51.366;12.350;2022-10-22T12:26:39;100156.91;;;18.46;73.54
66681;BME280;53575;51.366;12.350;2022-10-22T12:29:10;100162.19;;;18.68;73.13
66681;BME280;53575;51.366;12.350;2022-10-22T12:31:37;100154.09;;;18.93;72.26
66681;BME280;53575;51.366;12.350;2022-10-22T12:34:03;100165.69;;;18.91;71.98
66681;BME280;53575;51.366;12.350;2022-10-22T12:36:31;100168.13;;;18.95;71.85
66681;BME280;53575;51.366;12.350;2022-10-22T12:39:02;100160.09;;;18.77;73.12
66681;BME280;53575;51.366;12.350;2022-10-22T12:41:33;100170.53;;;18.59;73.93
66681;BME280;53575;51.366;12.350;2022-10-22T12:44:00;100171.69;;;18.52;74.00
66681;BME280;53575;51.366;12.350;2022-10-22T12:46:26;100177.03;;;18.50;73.24
66681;BME280;53575;51.366;12.350;2022-10-22T12:48:52;100161.09;;;18.52;73.58
66681;BME280;53575;51.366;12.350;2022-10-22T12:51:20;100163.44;;;18.60;73.58
66681;BME280;53575;51.366;12.350;2022-10-22T12:53:57;100168.13;;;18.75;72.72
66681;BME280;53575;51.366;12.350;2022-10-22T12:56:26;100166.13;;;18.80;73.40
66681;BME280;53575;51.366;12.350;2022-10-22T12:59:04;100162.13;;;18.70;72.57
66681;BME280;53575;51.366;12.350;2022-10-22T13:01:33;100164.09;;;18.65;73.05
66681;BME280;53575;51.366;12.350;2022-10-22T13:04:19;100167.16;;;18.78;72.59
66681;BME280;53575;51.366;12.350;2022-10-22T13:06:47;100163.75;;;18.74;73.06
66681;BME280;53575;51.366;12.350;2022-10-22T13:09:19;100155.75;;;18.75;72.91
66681;BME280;53575;51.366;12.350;2022-10-22T13:11:50;100164.09;;;18.65;73.14
66681;BME280;53575;51.366;12.350;2022-10-22T13:24:58;100156.09;;;19.09;71.05
66681;BME280;53575;51.366;12.350;2022-10-22T13:27:26;100162.81;;;19.36;70.32
66681;BME280;53575;51.366;12.350;2022-10-22T13:29:52;100165.38;;;19.38;69.30
66681;BME280;53575;51.366;12.350;2022-10-22T13:32:27;100154.06;;;19.34;69.71
66681;BME280;53575;51.366;12.350;2022-10-22T13:34:58;100159.16;;;19.18;70.71
66681;BME280;53575;51.366;12.350;2022-10-22T13:37:24;100166.28;;;18.97;71.31
66681;BME280;53575;51.366;12.350;2022-10-22T13:39:49;100179.66;;;18.74;72.46
66681;BME280;53575;51.366;12.350;2022-10-22T13:42:15;100169.06;;;18.74;72.85
66681;BME280;53575;51.366;12.350;2022-10-22T13:44:40;100165.56;;;18.94;72.48
66681;BME280;53575;51.366;12.350;2022-10-22T13:47:27;100167.75;;;19.44;70.45
66681;BME280;53575;51.366;12.350;2022-10-22T13:49:55;100156.16;;;19.86;68.62
66681;BME280;53575;51.366;12.350;2022-10-22T13:52:41;100161.59;;;19.83;68.83
66681;BME280;53575;51.366;12.350;2022-10-22T13:55:19;100153.91;;;19.37;69.71
66681;BME280;53575;51.366;12.350;2022-10-22T13:57:46;100168.94;;;18.97;71.07
66681;BME280;53575;51.366;12.350;2022-10-22T14:00:13;100166.75;;;18.87;71.05
66681;BME280;53575;51.366;12.350;2022-10-22T14:02:39;100169.19;;;18.71;71.98
66681;BME280;53575;51.366;12.350;2022-10-22T14:05:05;100157.88;;;18.66;73.17
66681;BME280;53575;51.366;12.350;2022-10-22T14:07:37;100153.94;;;18.54;73.44
66681;BME280;53575;51.366;12.350;2022-10-22T14:10:12;100161.31;;;18.47;73.92
66681;BME280;53575;51.366;12.350;2022-10-22T14:12:39;100159.84;;;18.40;74.40